sensor_id;sensor_type;location;lat;lon;timestamp;temperature;humidity
18043;DHT22;9146;48.074;11.968;2022-10-16T00:01:32;11.60;99.90
18043;DHT22;9146;48.074;11.968;2022-10-16T00:04:00;11.60;99.90
18043;DHT22;9146;48.074;11.968;2022-10-16T00:06:29;11.60;99.90
18043;DHT22;9146;48.074;11.968;2022-10-16T00:08:56;11.60;99.90
18043;DHT22;9146;48.074;11.968;2022-10-16T00:11:25;11.60;99.90
18043;DHT22;9146;48.074;11.968;2022-10-16T00:13:58;11.60;99.90
18043;DHT22;9146;48.074;11.968;2022-10-16T00:16:25;11.50;99.90
18043;DHT22;9146;48.074;11.968;2022-10-16T00:18:53;11.40;99.90
18043;DHT22;9146;48.074;11.968;2022-10-16T00:21:22;11.40;99.90
18043;DHT22;9146;48.074;11.968;2022-10-16T00:23:50;11.40;99.90
18043;DHT22;9146;48.074;11.968;2022-10-16T00:26:18;11.30;99.90
18043;DHT22;9146;48.074;11.968;2022-10-16T00:28:45;11.20;99.90
18043;DHT22;9146;48.074;11.968;2022-10-16T00:31:14;11.30;99.90
18043;DHT22;9146;48.074;11.968;2022-10-16T00:33:42;11.20;99.90
18043;DHT22;9146;48.074;11.968;2022-10-16T00:36:11;11.20;99.90
18043;DHT22;9146;48.074;11.968;2022-10-16T00:38:39;11.20;99.90
18043;DHT22;9146;48.074;11.968;2022-10-16T00:41:06;11.30;99.90
18043;DHT22;9146;48.074;11.968;2022-10-16T00:43:36;11.30;99.90
18043;DHT22;9146;48.074;11.968;2022-10-16T00:46:08;11.30;99.90
18043;DHT22;9146;48.074;11.968;2022-10-16T00:48:38;11.20;99.90
18043;DHT22;9146;48.074;11.968;2022-10-16T00:51:06;11.20;99.90
18043;DHT22;9146;48.074;11.968;2022-10-16T00:53:34;11.20;99.90
18043;DHT22;9146;48.074;11.968;2022-10-16T00:56:02;11.10;99.90
18043;DHT22;9146;48.074;11.968;2022-10-16T00:58:29;11.10;99.90
18043;DHT22;9146;48.074;11.968;2022-10-16T01:00:55;11.00;99.90
18043;DHT22;9146;48.074;11.968;2022-10-16T01:03:25;11.00;99.90
18043;DHT22;9146;48.074;11.968;2022-10-16T01:06:05;11.00;99.90
18043;DHT22;9146;48.074;11.968;2022-10-16T01:08:42;11.00;99.90
18043;DHT22;9146;48.074;11.968;2022-10-16T01:11:17;11.00;99.90
18043;DHT22;9146;48.074;11.968;2022-10-16T01:13:48;10.90;99.90
18043;DHT22;9146;48.074;11.968;2022-10-16T01:16:24;10.90;99.90
18043;DHT22;9146;48.074;11.968;2022-10-16T01:18:58;11.00;99.90
18043;DHT22;9146;48.074;11.968;2022-10-16T01:21:32;10.90;99.90
18043;DHT22;9146;48.074;11.968;2022-10-16T01:24:08;10.90;99.90
18043;DHT22;9146;48.074;11.968;2022-10-16T01:26:50;10.90;99.90
18043;DHT22;9146;48.074;11.968;2022-10-16T01:29:23;10.90;99.90
18043;DHT22;9146;48.074;11.968;2022-10-16T01:31:56;10.90;99.90
18043;DHT22;9146;48.074;11.968;2022-10-16T01:34:31;10.90;99.90
18043;DHT22;9146;48.074;11.968;2022-10-16T01:37:04;10.90;99.90
18043;DHT22;9146;48.074;11.968;2022-10-16T01:39:35;11.00;99.90
18043;DHT22;9146;48.074;11.968;2022-10-16T01:42:06;11.00;99.90
18043;DHT22;9146;48.074;11.968;2022-10-16T01:44:37;11.00;99.90
18043;DHT22;9146;48.074;11.968;2022-10-16T01:47:05;11.00;99.90
18043;DHT22;9146;48.074;11.968;2022-10-16T01:49:36;10.90;99.90
18043;DHT22;9146;48.074;11.968;2022-10-16T01:52:06;10.90;99.90
18043;DHT22;9146;48.074;11.968;2022-10-16T01:54:36;10.90;99.90
18043;DHT22;9146;48.074;11.968;2022-10-16T01:57:04;10.90;99.90
18043;DHT22;9146;48.074;11.968;2022-10-16T01:59:39;10.80;99.90
18043;DHT22;9146;48.074;11.968;2022-10-16T02:02:08;10.80;99.90
18043;DHT22;9146;48.074;11.968;2022-10-16T02:04:39;10.80;99.90
18043;DHT22;9146;48.074;11.968;2022-10-16T02:07:07;10.70;99.90
18043;DHT22;9146;48.074;11.968;2022-10-16T02:09:34;10.60;99.90
18043;DHT22;9146;48.074;11.968;2022-10-16T02:12:06;10.60;99.90
18043;DHT22;9146;48.074;11.968;2022-10-16T02:14:39;10.60;99.90
18043;DHT22;9146;48.074;11.968;2022-10-16T02:17:11;10.70;99.90
18043;DHT22;9146;48.074;11.968;2022-10-16T02:19:38;10.70;99.90
18043;DHT22;9146;48.074;11.968;2022-10-16T02:22:08;10.70;99.90
18043;DHT22;9146;48.074;11.968;2022-10-16T02:24:42;10.70;99.90
18043;DHT22;9146;48.074;11.968;2022-10-16T02:27:13;10.70;99.90
18043;DHT22;9146;48.074;11.968;2022-10-16T02:29:49;10.60;99.90
18043;DHT22;9146;48.074;11.968;2022-10-16T02:32:21;10.60;99.90
18043;DHT22;9146;48.074;11.968;2022-10-16T02:34:50;10.50;99.90
18043;DHT22;9146;48.074;11.968;2022-10-16T02:37:18;10.40;99.90
18043;DHT22;9146;48.074;11.968;2022-10-16T02:39:46;10.40;99.90
18043;DHT22;9146;48.074;11.968;2022-10-16T02:42:13;10.40;99.90
18043;DHT22;9146;48.074;11.968;2022-10-16T02:44:43;10.40;99.90
18043;DHT22;9146;48.074;11.968;2022-10-16T02:47:10;10.50;99.90
18043;DHT22;9146;48.074;11.968;2022-10-16T02:49:38;10.50;99.90
18043;DHT22;9146;48.074;11.968;2022-10-16T02:52:04;10.50;99.90
18043;DHT22;9146;48.074;11.968;2022-10-16T02:54:31;10.50;99.90
18043;DHT22;9146;48.074;11.968;2022-10-16T02:56:58;10.40;99.90
18043;DHT22;9146;48.074;11.968;2022-10-16T02:59:25;10.30;99.90
18043;DHT22;9146;48.074;11.968;2022-10-16T03:01:53;10.30;99.90
18043;DHT22;9146;48.074;11.968;2022-10-16T03:04:20;10.20;99.90
18043;DHT22;9146;48.074;11.968;2022-10-16T03:06:47;10.20;99.90
18043;DHT22;9146;48.074;11.968;2022-10-16T03:09:14;10.10;99.90
18043;DHT22;9146;48.074;11.968;2022-10-16T03:11:41;10.10;99.90
18043;DHT22;9146;48.074;11.968;2022-10-16T03:14:08;10.10;99.90
18043;DHT22;9146;48.074;11.968;2022-10-16T03:16:35;10.10;99.90
18043;DHT22;9146;48.074;11.968;2022-10-16T03:19:03;10.00;99.90
18043;DHT22;9146;48.074;11.968;2022-10-16T03:21:30;10.00;99.90
18043;DHT22;9146;48.074;11.968;2022-10-16T03:23:57;10.00;99.90
18043;DHT22;9146;48.074;11.968;2022-10-16T03:26:24;10.00;99.90
18043;DHT22;9146;48.074;11.968;2022-10-16T03:28:50;10.00;99.90
18043;DHT22;9146;48.074;11.968;2022-10-16T03:31:17;10.00;99.90
18043;DHT22;9146;48.074;11.968;2022-10-16T03:33:44;10.00;99.90
18043;DHT22;9146;48.074;11.968;2022-10-16T03:36:12;9.90;99.90
18043;DHT22;9146;48.074;11.968;2022-10-16T03:38:39;9.90;99.90
18043;DHT22;9146;48.074;11.968;2022-10-16T03:41:06;9.80;99.90
18043;DHT22;9146;48.074;11.968;2022-10-16T03:43:33;9.80;99.90
18043;DHT22;9146;48.074;11.968;2022-10-16T03:46:00;9.70;99.90
18043;DHT22;9146;48.074;11.968;2022-10-16T03:48:27;9.80;99.90
18043;DHT22;9146;48.074;11.968;2022-10-16T03:50:54;9.80;99.90
18043;DHT22;9146;48.074;11.968;2022-10-16T03:53:22;9.80;99.90
18043;DHT22;9146;48.074;11.968;2022-10-16T03:55:49;9.90;99.90
18043;DHT22;9146;48.074;11.968;2022-10-16T03:58:16;10.00;99.90
18043;DHT22;9146;48.074;11.968;2022-10-16T04:00:46;10.00;99.90
18043;DHT22;9146;48.074;11.968;2022-10-16T04:03:14;10.10;99.90
18043;DHT22;9146;48.074;11.968;2022-10-16T04:05:41;10.10;99.90
18043;DHT22;9146;48.074;11.968;2022-10-16T04:08:08;10.10;99.90
18043;DHT22;9146;48.074;11.968;2022-10-16T04:10:36;10.10;99.90
18043;DHT22;9146;48.074;11.968;2022-10-16T04:13:03;10.10;99.90
18043;DHT22;9146;48.074;11.968;2022-10-16T04:15:30;10.20;99.90
18043;DHT22;9146;48.074;11.968;2022-10-16T04:17:57;10.20;99.90
18043;DHT22;9146;48.074;11.968;2022-10-16T04:20:24;10.20;99.90
18043;DHT22;9146;48.074;11.968;2022-10-16T04:22:50;10.20;99.90
18043;DHT22;9146;48.074;11.968;2022-10-16T04:25:17;10.30;99.90
18043;DHT22;9146;48.074;11.968;2022-10-16T04:27:45;10.30;99.90
18043;DHT22;9146;48.074;11.968;2022-10-16T04:30:12;10.40;99.90
18043;DHT22;9146;48.074;11.968;2022-10-16T04:32:39;10.40;99.90
18043;DHT22;9146;48.074;11.968;2022-10-16T04:35:07;10.50;99.90
18043;DHT22;9146;48.074;11.968;2022-10-16T04:37:34;10.50;99.90
18043;DHT22;9146;48.074;11.968;2022-10-16T04:40:01;10.60;99.90
18043;DHT22;9146;48.074;11.968;2022-10-16T04:42:27;10.60;99.90
18043;DHT22;9146;48.074;11.968;2022-10-16T04:44:56;10.60;99.90
18043;DHT22;9146;48.074;11.968;2022-10-16T04:47:22;10.70;99.90
18043;DHT22;9146;48.074;11.968;2022-10-16T04:49:49;10.70;99.90
18043;DHT22;9146;48.074;11.968;2022-10-16T04:52:16;10.70;99.90
18043;DHT22;9146;48.074;11.968;2022-10-16T04:54:44;10.80;99.90
18043;DHT22;9146;48.074;11.968;2022-10-16T04:57:12;10.80;99.90
18043;DHT22;9146;48.074;11.968;2022-10-16T04:59:38;10.80;99.90
18043;DHT22;9146;48.074;11.968;2022-10-16T05:02:07;10.90;99.90
18043;DHT22;9146;48.074;11.968;2022-10-16T05:04:33;10.90;99.90
18043;DHT22;9146;48.074;11.968;2022-10-16T05:07:00;10.90;99.90
18043;DHT22;9146;48.074;11.968;2022-10-16T05:09:27;11.00;99.90
18043;DHT22;9146;48.074;11.968;2022-10-16T05:11:54;10.90;99.90
18043;DHT22;9146;48.074;11.968;2022-10-16T05:14:21;11.00;99.90
18043;DHT22;9146;48.074;11.968;2022-10-16T05:16:48;11.00;99.90
18043;DHT22;9146;48.074;11.968;2022-10-16T05:19:16;11.00;99.90
18043;DHT22;9146;48.074;11.968;2022-10-16T05:21:43;11.00;99.90
18043;DHT22;9146;48.074;11.968;2022-10-16T05:24:10;11.10;99.90
18043;DHT22;9146;48.074;11.968;2022-10-16T05:26:37;11.10;99.90
18043;DHT22;9146;48.074;11.968;2022-10-16T05:29:04;11.10;99.90
18043;DHT22;9146;48.074;11.968;2022-10-16T05:31:31;11.10;99.90
18043;DHT22;9146;48.074;11.968;2022-10-16T05:33:58;11.10;99.90
18043;DHT22;9146;48.074;11.968;2022-10-16T05:36:27;11.10;99.90
18043;DHT22;9146;48.074;11.968;2022-10-16T05:38:54;11.20;99.90
18043;DHT22;9146;48.074;11.968;2022-10-16T05:41:21;11.20;99.90
18043;DHT22;9146;48.074;11.968;2022-10-16T05:43:51;11.20;99.90
18043;DHT22;9146;48.074;11.968;2022-10-16T05:46:21;11.30;99.90
18043;DHT22;9146;48.074;11.968;2022-10-16T05:48:48;11.30;99.90
18043;DHT22;9146;48.074;11.968;2022-10-16T05:51:17;11.40;99.90
18043;DHT22;9146;48.074;11.968;2022-10-16T05:53:46;11.40;99.90
18043;DHT22;9146;48.074;11.968;2022-10-16T05:56:13;11.40;99.90
18043;DHT22;9146;48.074;11.968;2022-10-16T05:58:40;11.40;99.90
18043;DHT22;9146;48.074;11.968;2022-10-16T06:01:10;11.50;99.90
18043;DHT22;9146;48.074;11.968;2022-10-16T06:03:37;11.50;99.90
18043;DHT22;9146;48.074;11.968;2022-10-16T06:06:08;11.50;99.90
18043;DHT22;9146;48.074;11.968;2022-10-16T06:08:35;11.60;99.90
18043;DHT22;9146;48.074;11.968;2022-10-16T06:11:05;11.60;99.90
18043;DHT22;9146;48.074;11.968;2022-10-16T06:13:32;11.60;99.90
18043;DHT22;9146;48.074;11.968;2022-10-16T06:16:00;11.70;99.90
18043;DHT22;9146;48.074;11.968;2022-10-16T06:18:28;11.60;99.90
18043;DHT22;9146;48.074;11.968;2022-10-16T06:20:55;11.70;99.90
18043;DHT22;9146;48.074;11.968;2022-10-16T06:23:23;11.70;99.90
18043;DHT22;9146;48.074;11.968;2022-10-16T06:25:50;11.70;99.90
18043;DHT22;9146;48.074;11.968;2022-10-16T06:28:18;11.70;99.90
18043;DHT22;9146;48.074;11.968;2022-10-16T06:30:45;11.80;99.90
18043;DHT22;9146;48.074;11.968;2022-10-16T06:33:12;11.80;99.90
18043;DHT22;9146;48.074;11.968;2022-10-16T06:35:39;11.90;99.90
18043;DHT22;9146;48.074;11.968;2022-10-16T06:38:06;11.90;99.90
18043;DHT22;9146;48.074;11.968;2022-10-16T06:40:33;12.00;99.90
18043;DHT22;9146;48.074;11.968;2022-10-16T06:43:00;12.00;99.90
18043;DHT22;9146;48.074;11.968;2022-10-16T06:45:28;12.00;99.90
18043;DHT22;9146;48.074;11.968;2022-10-16T06:47:55;12.10;99.90
18043;DHT22;9146;48.074;11.968;2022-10-16T06:50:22;12.10;99.90
18043;DHT22;9146;48.074;11.968;2022-10-16T06:52:49;12.20;99.90
18043;DHT22;9146;48.074;11.968;2022-10-16T06:55:16;12.20;99.90
18043;DHT22;9146;48.074;11.968;2022-10-16T06:57:43;12.30;99.90
18043;DHT22;9146;48.074;11.968;2022-10-16T07:00:13;12.40;99.90
18043;DHT22;9146;48.074;11.968;2022-10-16T07:02:41;12.50;99.90
18043;DHT22;9146;48.074;11.968;2022-10-16T07:05:08;12.50;99.90
18043;DHT22;9146;48.074;11.968;2022-10-16T07:07:35;12.60;99.90
18043;DHT22;9146;48.074;11.968;2022-10-16T07:10:02;12.60;99.90
18043;DHT22;9146;48.074;11.968;2022-10-16T07:12:29;12.70;99.90
18043;DHT22;9146;48.074;11.968;2022-10-16T07:14:57;12.80;99.90
18043;DHT22;9146;48.074;11.968;2022-10-16T07:17:24;12.90;99.90
18043;DHT22;9146;48.074;11.968;2022-10-16T07:19:52;12.90;99.90
18043;DHT22;9146;48.074;11.968;2022-10-16T07:22:20;13.00;99.90
18043;DHT22;9146;48.074;11.968;2022-10-16T07:24:47;13.10;99.90
18043;DHT22;9146;48.074;11.968;2022-10-16T07:27:14;13.20;99.90
18043;DHT22;9146;48.074;11.968;2022-10-16T07:29:42;13.40;99.90
18043;DHT22;9146;48.074;11.968;2022-10-16T07:32:08;13.50;99.90
18043;DHT22;9146;48.074;11.968;2022-10-16T07:34:35;13.50;99.90
18043;DHT22;9146;48.074;11.968;2022-10-16T07:37:04;13.60;99.90
18043;DHT22;9146;48.074;11.968;2022-10-16T07:39:31;13.60;99.90
18043;DHT22;9146;48.074;11.968;2022-10-16T07:41:58;13.70;99.90
18043;DHT22;9146;48.074;11.968;2022-10-16T07:44:25;13.70;99.90
18043;DHT22;9146;48.074;11.968;2022-10-16T07:46:52;13.80;99.90
18043;DHT22;9146;48.074;11.968;2022-10-16T07:49:18;13.80;99.90
18043;DHT22;9146;48.074;11.968;2022-10-16T07:51:45;13.90;99.90
18043;DHT22;9146;48.074;11.968;2022-10-16T07:54:14;14.00;99.90
18043;DHT22;9146;48.074;11.968;2022-10-16T07:56:41;14.10;99.90
18043;DHT22;9146;48.074;11.968;2022-10-16T07:59:08;14.10;99.90
18043;DHT22;9146;48.074;11.968;2022-10-16T08:01:36;14.20;99.90
18043;DHT22;9146;48.074;11.968;2022-10-16T08:04:03;14.20;99.90
18043;DHT22;9146;48.074;11.968;2022-10-16T08:06:35;14.30;99.90
18043;DHT22;9146;48.074;11.968;2022-10-16T08:09:02;14.30;99.90
18043;DHT22;9146;48.074;11.968;2022-10-16T08:11:31;14.30;99.90
18043;DHT22;9146;48.074;11.968;2022-10-16T08:13:58;14.40;99.90
18043;DHT22;9146;48.074;11.968;2022-10-16T08:16:25;14.50;99.90
18043;DHT22;9146;48.074;11.968;2022-10-16T08:18:52;14.50;99.90
18043;DHT22;9146;48.074;11.968;2022-10-16T08:21:22;14.60;99.90
18043;DHT22;9146;48.074;11.968;2022-10-16T08:23:49;14.60;99.90
18043;DHT22;9146;48.074;11.968;2022-10-16T08:26:16;14.70;99.90
18043;DHT22;9146;48.074;11.968;2022-10-16T08:28:49;14.70;99.90
18043;DHT22;9146;48.074;11.968;2022-10-16T08:31:16;14.80;99.90
18043;DHT22;9146;48.074;11.968;2022-10-16T08:33:45;14.80;99.90
18043;DHT22;9146;48.074;11.968;2022-10-16T08:36:13;14.80;99.90
18043;DHT22;9146;48.074;11.968;2022-10-16T08:38:40;14.80;99.90
18043;DHT22;9146;48.074;11.968;2022-10-16T08:41:23;14.90;99.90
18043;DHT22;9146;48.074;11.968;2022-10-16T08:46:53;15.00;99.90
18043;DHT22;9146;48.074;11.968;2022-10-16T08:49:22;15.10;99.90
18043;DHT22;9146;48.074;11.968;2022-10-16T08:51:50;15.20;99.90
18043;DHT22;9146;48.074;11.968;2022-10-16T08:54:28;15.30;99.90
18043;DHT22;9146;48.074;11.968;2022-10-16T08:56:56;15.40;99.90
18043;DHT22;9146;48.074;11.968;2022-10-16T08:59:24;15.50;99.90
18043;DHT22;9146;48.074;11.968;2022-10-16T09:01:52;15.60;99.90
18043;DHT22;9146;48.074;11.968;2022-10-16T09:04:45;15.70;99.90
18043;DHT22;9146;48.074;11.968;2022-10-16T09:07:22;15.80;99.90
18043;DHT22;9146;48.074;11.968;2022-10-16T09:10:00;15.80;99.90
18043;DHT22;9146;48.074;11.968;2022-10-16T09:12:33;15.80;99.90
18043;DHT22;9146;48.074;11.968;2022-10-16T09:15:13;15.80;99.90
18043;DHT22;9146;48.074;11.968;2022-10-16T09:17:52;15.90;99.90
18043;DHT22;9146;48.074;11.968;2022-10-16T09:20:33;16.00;99.90
18043;DHT22;9146;48.074;11.968;2022-10-16T09:23:14;16.10;99.90
18043;DHT22;9146;48.074;11.968;2022-10-16T09:25:44;16.20;99.90
18043;DHT22;9146;48.074;11.968;2022-10-16T09:28:13;16.30;99.90
18043;DHT22;9146;48.074;11.968;2022-10-16T09:30:41;16.30;99.90
18043;DHT22;9146;48.074;11.968;2022-10-16T09:33:11;16.50;99.90
18043;DHT22;9146;48.074;11.968;2022-10-16T09:35:40;16.60;99.90
18043;DHT22;9146;48.074;11.968;2022-10-16T09:38:09;16.70;99.90
18043;DHT22;9146;48.074;11.968;2022-10-16T09:40:46;16.80;99.90
18043;DHT22;9146;48.074;11.968;2022-10-16T09:43:20;16.90;99.90
18043;DHT22;9146;48.074;11.968;2022-10-16T09:45:59;17.00;99.90
18043;DHT22;9146;48.074;11.968;2022-10-16T09:48:30;17.10;99.90
18043;DHT22;9146;48.074;11.968;2022-10-16T09:50:59;17.20;99.90
18043;DHT22;9146;48.074;11.968;2022-10-16T09:53:38;17.30;99.90
18043;DHT22;9146;48.074;11.968;2022-10-16T09:56:06;17.30;99.90
18043;DHT22;9146;48.074;11.968;2022-10-16T09:58:33;17.40;99.90
18043;DHT22;9146;48.074;11.968;2022-10-16T10:01:02;17.50;99.90
18043;DHT22;9146;48.074;11.968;2022-10-16T10:03:35;17.50;99.90
18043;DHT22;9146;48.074;11.968;2022-10-16T10:06:15;17.60;99.90
18043;DHT22;9146;48.074;11.968;2022-10-16T10:08:56;17.70;99.90
18043;DHT22;9146;48.074;11.968;2022-10-16T10:11:53;17.80;99.90
18043;DHT22;9146;48.074;11.968;2022-10-16T10:14:30;17.90;99.90
18043;DHT22;9146;48.074;11.968;2022-10-16T10:17:15;18.00;99.90
18043;DHT22;9146;48.074;11.968;2022-10-16T10:19:47;18.10;99.90
18043;DHT22;9146;48.074;11.968;2022-10-16T10:22:26;18.10;99.90
18043;DHT22;9146;48.074;11.968;2022-10-16T10:25:15;18.20;99.90
18043;DHT22;9146;48.074;11.968;2022-10-16T10:28:05;18.20;99.90
18043;DHT22;9146;48.074;11.968;2022-10-16T10:30:40;18.40;99.90
18043;DHT22;9146;48.074;11.968;2022-10-16T10:33:24;18.40;99.90
18043;DHT22;9146;48.074;11.968;2022-10-16T10:35:59;18.50;99.90
18043;DHT22;9146;48.074;11.968;2022-10-16T10:38:32;18.60;99.90
18043;DHT22;9146;48.074;11.968;2022-10-16T10:41:13;18.70;99.90
18043;DHT22;9146;48.074;11.968;2022-10-16T10:43:50;18.80;99.90
18043;DHT22;9146;48.074;11.968;2022-10-16T10:46:28;18.90;99.90
18043;DHT22;9146;48.074;11.968;2022-10-16T10:49:09;18.90;99.90
18043;DHT22;9146;48.074;11.968;2022-10-16T10:51:44;19.00;99.90
18043;DHT22;9146;48.074;11.968;2022-10-16T10:54:17;19.10;99.90
18043;DHT22;9146;48.074;11.968;2022-10-16T10:56:51;19.20;99.90
18043;DHT22;9146;48.074;11.968;2022-10-16T10:59:43;19.30;99.90
18043;DHT22;9146;48.074;11.968;2022-10-16T11:02:17;19.30;99.90
18043;DHT22;9146;48.074;11.968;2022-10-16T11:05:13;19.30;99.90
18043;DHT22;9146;48.074;11.968;2022-10-16T11:07:51;19.30;99.90
18043;DHT22;9146;48.074;11.968;2022-10-16T11:10:21;19.40;99.90
18043;DHT22;9146;48.074;11.968;2022-10-16T11:12:52;19.40;99.90
18043;DHT22;9146;48.074;11.968;2022-10-16T11:15:23;19.50;99.90
18043;DHT22;9146;48.074;11.968;2022-10-16T11:17:57;19.60;99.90
18043;DHT22;9146;48.074;11.968;2022-10-16T11:20:29;19.70;99.90
18043;DHT22;9146;48.074;11.968;2022-10-16T11:23:02;19.70;99.90
18043;DHT22;9146;48.074;11.968;2022-10-16T11:25:33;19.80;99.90
18043;DHT22;9146;48.074;11.968;2022-10-16T11:28:03;19.80;99.90
18043;DHT22;9146;48.074;11.968;2022-10-16T11:30:39;19.90;99.90
18043;DHT22;9146;48.074;11.968;2022-10-16T11:33:21;19.90;99.90
18043;DHT22;9146;48.074;11.968;2022-10-16T11:35:54;20.00;99.90
18043;DHT22;9146;48.074;11.968;2022-10-16T11:38:28;20.00;99.90
18043;DHT22;9146;48.074;11.968;2022-10-16T11:41:00;20.00;99.90
18043;DHT22;9146;48.074;11.968;2022-10-16T11:43:34;20.10;99.90
18043;DHT22;9146;48.074;11.968;2022-10-16T11:46:07;20.10;99.90
18043;DHT22;9146;48.074;11.968;2022-10-16T11:48:39;20.10;99.90
18043;DHT22;9146;48.074;11.968;2022-10-16T11:51:16;20.10;99.90
18043;DHT22;9146;48.074;11.968;2022-10-16T11:53:51;20.20;99.90
18043;DHT22;9146;48.074;11.968;2022-10-16T11:56:20;20.20;99.90
18043;DHT22;9146;48.074;11.968;2022-10-16T11:58:54;20.20;99.90
18043;DHT22;9146;48.074;11.968;2022-10-16T12:01:28;20.30;99.90
18043;DHT22;9146;48.074;11.968;2022-10-16T12:04:16;20.30;99.90
18043;DHT22;9146;48.074;11.968;2022-10-16T12:06:49;20.20;99.90
18043;DHT22;9146;48.074;11.968;2022-10-16T12:09:22;20.20;99.90
18043;DHT22;9146;48.074;11.968;2022-10-16T12:11:49;20.30;99.90
18043;DHT22;9146;48.074;11.968;2022-10-16T12:14:22;20.20;99.90
18043;DHT22;9146;48.074;11.968;2022-10-16T12:17:02;20.30;99.90
18043;DHT22;9146;48.074;11.968;2022-10-16T12:19:32;20.30;99.90
18043;DHT22;9146;48.074;11.968;2022-10-16T12:22:01;20.30;99.90
18043;DHT22;9146;48.074;11.968;2022-10-16T12:24:33;20.30;99.90
18043;DHT22;9146;48.074;11.968;2022-10-16T12:27:01;20.40;99.90
18043;DHT22;9146;48.074;11.968;2022-10-16T12:29:33;20.40;99.90
18043;DHT22;9146;48.074;11.968;2022-10-16T12:32:01;20.40;99.90
18043;DHT22;9146;48.074;11.968;2022-10-16T12:34:32;20.30;99.90
18043;DHT22;9146;48.074;11.968;2022-10-16T12:37:14;20.30;99.90
18043;DHT22;9146;48.074;11.968;2022-10-16T12:39:41;20.30;99.90
18043;DHT22;9146;48.074;11.968;2022-10-16T12:42:23;20.20;99.90
18043;DHT22;9146;48.074;11.968;2022-10-16T12:44:50;20.30;99.90
18043;DHT22;9146;48.074;11.968;2022-10-16T12:47:22;20.30;99.90
18043;DHT22;9146;48.074;11.968;2022-10-16T12:49:51;20.30;99.90
18043;DHT22;9146;48.074;11.968;2022-10-16T12:52:36;20.30;99.90
18043;DHT22;9146;48.074;11.968;2022-10-16T12:55:05;20.40;99.90
18043;DHT22;9146;48.074;11.968;2022-10-16T12:57:45;20.40;99.90
18043;DHT22;9146;48.074;11.968;2022-10-16T13:00:22;20.40;99.90
18043;DHT22;9146;48.074;11.968;2022-10-16T13:06:08;20.40;99.90
18043;DHT22;9146;48.074;11.968;2022-10-16T13:11:46;20.60;99.90
18043;DHT22;9146;48.074;11.968;2022-10-16T13:14:28;20.70;99.90
18043;DHT22;9146;48.074;11.968;2022-10-16T13:17:04;20.70;99.90
18043;DHT22;9146;48.074;11.968;2022-10-16T13:19:41;20.70;99.90
18043;DHT22;9146;48.074;11.968;2022-10-16T13:22:16;20.70;99.90
18043;DHT22;9146;48.074;11.968;2022-10-16T13:24:59;20.70;99.90
18043;DHT22;9146;48.074;11.968;2022-10-16T13:27:35;20.70;99.90
18043;DHT22;9146;48.074;11.968;2022-10-16T13:30:13;20.80;99.90
18043;DHT22;9146;48.074;11.968;2022-10-16T13:32:45;20.80;99.90
18043;DHT22;9146;48.074;11.968;2022-10-16T13:35:21;20.80;99.90
18043;DHT22;9146;48.074;11.968;2022-10-16T13:37:48;20.80;99.90
18043;DHT22;9146;48.074;11.968;2022-10-16T13:40:22;20.80;99.90
18043;DHT22;9146;48.074;11.968;2022-10-16T13:42:50;20.80;99.90
18043;DHT22;9146;48.074;11.968;2022-10-16T13:45:18;20.80;99.90
18043;DHT22;9146;48.074;11.968;2022-10-16T13:47:46;20.80;99.90
18043;DHT22;9146;48.074;11.968;2022-10-16T13:50:14;20.80;99.90
18043;DHT22;9146;48.074;11.968;2022-10-16T13:52:42;20.80;99.90
18043;DHT22;9146;48.074;11.968;2022-10-16T13:55:12;20.80;99.90
18043;DHT22;9146;48.074;11.968;2022-10-16T13:57:41;20.90;99.90
18043;DHT22;9146;48.074;11.968;2022-10-16T14:00:19;20.90;99.90
18043;DHT22;9146;48.074;11.968;2022-10-16T14:02:51;20.90;99.90
18043;DHT22;9146;48.074;11.968;2022-10-16T14:05:18;20.90;99.90
18043;DHT22;9146;48.074;11.968;2022-10-16T14:07:49;20.90;99.90
18043;DHT22;9146;48.074;11.968;2022-10-16T14:10:22;20.90;99.90
18043;DHT22;9146;48.074;11.968;2022-10-16T14:13:00;21.00;99.90
18043;DHT22;9146;48.074;11.968;2022-10-16T14:15:29;21.00;99.90
18043;DHT22;9146;48.074;11.968;2022-10-16T14:17:57;21.00;99.90
18043;DHT22;9146;48.074;11.968;2022-10-16T14:20:27;21.00;99.90
18043;DHT22;9146;48.074;11.968;2022-10-16T14:22:59;21.10;99.90
18043;DHT22;9146;48.074;11.968;2022-10-16T14:25:28;21.20;99.90
18043;DHT22;9146;48.074;11.968;2022-10-16T14:28:03;21.10;99.90
18043;DHT22;9146;48.074;11.968;2022-10-16T14:30:33;21.10;99.90
18043;DHT22;9146;48.074;11.968;2022-10-16T14:33:02;21.20;99.90
18043;DHT22;9146;48.074;11.968;2022-10-16T14:35:31;21.20;99.90
18043;DHT22;9146;48.074;11.968;2022-10-16T14:37:59;21.20;99.90
18043;DHT22;9146;48.074;11.968;2022-10-16T14:40:28;21.20;99.90
18043;DHT22;9146;48.074;11.968;2022-10-16T14:42:55;21.20;99.90
18043;DHT22;9146;48.074;11.968;2022-10-16T14:45:26;21.10;99.90
18043;DHT22;9146;48.074;11.968;2022-10-16T14:47:56;21.20;99.90
18043;DHT22;9146;48.074;11.968;2022-10-16T14:50:24;21.10;99.90
18043;DHT22;9146;48.074;11.968;2022-10-16T14:52:51;21.10;99.90
18043;DHT22;9146;48.074;11.968;2022-10-16T14:55:18;21.10;99.90
18043;DHT22;9146;48.074;11.968;2022-10-16T14:57:45;21.10;99.90
18043;DHT22;9146;48.074;11.968;2022-10-16T15:00:19;21.10;99.90
18043;DHT22;9146;48.074;11.968;2022-10-16T15:02:49;21.00;99.90
18043;DHT22;9146;48.074;11.968;2022-10-16T15:05:18;21.00;99.90
18043;DHT22;9146;48.074;11.968;2022-10-16T15:07:46;21.00;99.90
18043;DHT22;9146;48.074;11.968;2022-10-16T15:10:15;21.00;99.90
18043;DHT22;9146;48.074;11.968;2022-10-16T15:12:42;21.00;99.90
18043;DHT22;9146;48.074;11.968;2022-10-16T15:15:24;20.90;99.90
18043;DHT22;9146;48.074;11.968;2022-10-16T15:17:55;20.90;99.90
18043;DHT22;9146;48.074;11.968;2022-10-16T15:20:22;20.90;99.90
18043;DHT22;9146;48.074;11.968;2022-10-16T15:22:49;20.90;99.90
18043;DHT22;9146;48.074;11.968;2022-10-16T15:25:33;20.80;99.90
18043;DHT22;9146;48.074;11.968;2022-10-16T15:28:02;20.70;99.90
18043;DHT22;9146;48.074;11.968;2022-10-16T15:30:29;20.60;99.90
18043;DHT22;9146;48.074;11.968;2022-10-16T15:32:58;20.50;99.90
18043;DHT22;9146;48.074;11.968;2022-10-16T15:35:26;20.40;99.90
18043;DHT22;9146;48.074;11.968;2022-10-16T15:37:53;20.30;99.90
18043;DHT22;9146;48.074;11.968;2022-10-16T15:40:20;20.30;99.90
18043;DHT22;9146;48.074;11.968;2022-10-16T15:42:48;20.20;99.90
18043;DHT22;9146;48.074;11.968;2022-10-16T15:45:15;20.10;99.90
18043;DHT22;9146;48.074;11.968;2022-10-16T15:47:43;19.90;99.90
18043;DHT22;9146;48.074;11.968;2022-10-16T15:50:12;19.80;99.90
18043;DHT22;9146;48.074;11.968;2022-10-16T15:52:40;19.70;99.90
18043;DHT22;9146;48.074;11.968;2022-10-16T15:55:08;19.60;99.90
18043;DHT22;9146;48.074;11.968;2022-10-16T15:57:35;19.40;99.90
18043;DHT22;9146;48.074;11.968;2022-10-16T16:00:06;19.30;99.90